Time;durP1;ratioP1;P1;durP2;ratioP2;P2;SDS_P1;SDS_P2;PMS_P1;PMS_P2;Temp;Humidity;BMP_temperature;BMP_pressure;BME280_temperature;BME280_humidity;BME280_pressure;Samples;Min_cycle;Max_cycle;Signal;HPM_P1;HPM_P2
2022/12/11 00:01:15;;;;;;;;;;;;;;;12.03;63.23;91839.13;4998122;28;19921;-76
2022/12/11 00:03:40;;;;;;;;;;;;;;;11.83;63.93;91830.59;5011567;28;19974;-76
2022/12/11 00:06:11;;;;;;;;;;;;;;;11.90;63.18;91830.66;5012315;28;19917;-76
2022/12/11 00:08:36;;;;;;;;;;;;;;;11.85;63.06;91827.56;5013039;28;19916;-77
2022/12/11 00:11:02;;;;;;;;;;;;;;;11.94;63.35;91836.78;5023259;28;19921;-77
2022/12/11 00:13:27;;;;;;;;;;;;;;;11.88;62.77;91832.91;5012016;28;19922;-76
2022/12/11 00:15:53;;;;;;;;;;;;;;;11.72;63.77;91819.13;5009624;28;20469;-76
2022/12/11 00:18:18;;;;;;;;;;;;;;;11.63;64.59;91821.31;5014687;28;19933;-76
2022/12/11 00:20:43;;;;;;;;;;;;;;;11.37;64.88;91829.38;5012825;28;19916;-76
2022/12/11 00:23:09;;;;;;;;;;;;;;;11.46;65.47;91822.63;5012167;28;19928;-77
2022/12/11 00:25:39;;;;;;;;;;;;;;;11.45;65.21;91830.97;5015433;28;20055;-76
2022/12/11 00:28:04;;;;;;;;;;;;;;;11.32;66.03;91822.50;5014452;28;19921;-76
2022/12/11 00:30:29;;;;;;;;;;;;;;;11.40;65.43;91823.31;5028276;28;19917;-77
2022/12/11 00:32:55;;;;;;;;;;;;;;;11.15;66.64;91823.06;5013975;28;19942;-75
2022/12/11 00:35:20;;;;;;;;;;;;;;;11.27;66.34;91812.19;5013028;28;19917;-75
2022/12/11 00:37:45;;;;;;;;;;;;;;;11.37;65.99;91803.53;5014011;28;20535;-78
2022/12/11 00:40:11;;;;;;;;;;;;;;;11.38;66.06;91821.06;5015002;28;19924;-77
2022/12/11 00:42:36;;;;;;;;;;;;;;;11.36;65.79;91809.22;5016708;28;19980;-77
2022/12/11 00:45:02;;;;;;;;;;;;;;;11.28;66.13;91818.28;5014065;28;20102;-77
2022/12/11 00:47:27;;;;;;;;;;;;;;;11.33;66.52;91797.44;5014477;28;19936;-77
2022/12/11 00:49:52;;;;;;;;;;;;;;;11.42;66.14;91815.75;5010859;28;20018;-77
2022/12/11 00:52:17;;;;;;;;;;;;;;;11.54;65.57;91818.19;5014780;28;19924;-76
2022/12/11 00:54:43;;;;;;;;;;;;;;;11.45;65.70;91807.03;5012509;28;19913;-76
2022/12/11 00:57:08;;;;;;;;;;;;;;;11.60;65.33;91811.38;5014643;28;20063;-76
2022/12/11 00:59:33;;;;;;;;;;;;;;;11.45;65.03;91809.69;5011227;28;19987;-76
2022/12/11 01:01:58;;;;;;;;;;;;;;;11.54;64.88;91818.94;5012982;28;19996;-75
2022/12/11 01:04:24;;;;;;;;;;;;;;;11.41;64.93;91798.25;5013297;28;19982;-75
2022/12/11 01:06:49;;;;;;;;;;;;;;;11.12;65.86;91819.25;5029514;28;19974;-74
2022/12/11 01:11:58;;;;;;;;;;;;;;;11.36;65.81;91807.34;5014816;28;20327;-75
2022/12/11 01:14:23;;;;;;;;;;;;;;;11.48;65.30;91804.41;5013667;28;19917;-77
2022/12/11 01:16:48;;;;;;;;;;;;;;;10.91;67.63;91792.41;5015218;28;19921;-75
2022/12/11 01:19:14;;;;;;;;;;;;;;;11.04;67.28;91822.22;5011483;28;19935;-75
2022/12/11 01:21:40;;;;;;;;;;;;;;;11.09;67.53;91840.50;5028267;28;20448;-76
2022/12/11 01:24:05;;;;;;;;;;;;;;;11.15;67.86;91850.44;5016849;28;19909;-76
2022/12/11 01:26:30;;;;;;;;;;;;;;;10.88;68.71;91838.34;5030348;28;19921;-76
2022/12/11 01:28:55;;;;;;;;;;;;;;;10.76;69.98;91825.28;5014324;28;19961;-76
2022/12/11 01:31:21;;;;;;;;;;;;;;;10.56;71.94;91794.69;5015830;28;20361;-75
2022/12/11 01:33:46;;;;;;;;;;;;;;;10.65;72.05;91781.88;5011470;28;19914;-76
2022/12/11 01:36:17;;;;;;;;;;;;;;;10.38;73.92;91756.47;5025961;28;19920;-76
2022/12/11 01:38:43;;;;;;;;;;;;;;;10.29;73.41;91749.50;5016023;28;19928;-75
2022/12/11 01:41:08;;;;;;;;;;;;;;;10.34;72.11;91729.84;5013807;28;19917;-76
2022/12/11 01:43:34;;;;;;;;;;;;;;;10.37;70.17;91715.09;5014329;28;19924;-76
2022/12/11 01:45:59;;;;;;;;;;;;;;;10.38;72.13;91737.88;5016278;28;19917;-75
2022/12/11 01:48:27;;;;;;;;;;;;;;;10.35;71.24;91765.13;5016064;28;19912;-76
2022/12/11 01:50:54;;;;;;;;;;;;;;;10.47;71.34;91693.19;5013693;28;19917;-76
2022/12/11 01:53:25;;;;;;;;;;;;;;;10.39;72.15;91692.34;5013091;28;21044;-76
2022/12/11 01:55:52;;;;;;;;;;;;;;;10.45;72.45;91712.16;5013372;28;20591;-77
2022/12/11 01:58:19;;;;;;;;;;;;;;;10.53;71.66;91774.13;5009429;28;19921;-77
2022/12/11 02:00:45;;;;;;;;;;;;;;;10.57;67.18;91761.63;5011877;28;20019;-77
2022/12/11 02:03:10;;;;;;;;;;;;;;;10.64;66.95;91773.13;5006222;28;19924;-77
2022/12/11 02:05:35;;;;;;;;;;;;;;;10.65;65.45;91729.47;5009894;28;19968;-77
2022/12/11 02:08:02;;;;;;;;;;;;;;;10.64;65.83;91695.28;5010953;28;19924;-76
2022/12/11 02:10:33;;;;;;;;;;;;;;;10.48;65.04;91700.78;5011216;28;19927;-75
2022/12/11 02:13:03;;;;;;;;;;;;;;;10.37;67.02;91651.34;5010878;28;20024;-76
2022/12/11 02:15:34;;;;;;;;;;;;;;;10.17;68.45;91648.78;5013369;28;20444;-77
2022/12/11 02:18:15;;;;;;;;;;;;;;;10.20;68.35;91687.94;5008963;28;19921;-77
2022/12/11 02:20:55;;;;;;;;;;;;;;;10.25;69.65;91658.38;5012377;28;19984;-76
2022/12/11 02:23:24;;;;;;;;;;;;;;;10.39;69.68;91660.47;5018382;28;20015;-75
2022/12/11 02:26:08;;;;;;;;;;;;;;;10.46;69.25;91655.25;5014948;28;20084;-78
2022/12/11 02:28:36;;;;;;;;;;;;;;;10.58;70.86;91635.59;5014057;28;19975;-77
2022/12/11 02:31:25;;;;;;;;;;;;;;;10.64;71.26;91620.84;5009199;28;20637;-75
2022/12/11 02:34:02;;;;;;;;;;;;;;;10.68;71.66;91624.31;5008474;28;20016;-76
2022/12/11 02:36:29;;;;;;;;;;;;;;;10.70;71.32;91628.16;5020626;28;19987;-75
2022/12/11 02:38:56;;;;;;;;;;;;;;;10.70;72.35;91656.63;5013146;28;20009;-75
2022/12/11 02:41:22;;;;;;;;;;;;;;;10.76;73.01;91625.88;5017937;28;20004;-75
2022/12/11 02:43:49;;;;;;;;;;;;;;;10.87;71.16;91661.31;5010788;28;19999;-77
2022/12/11 02:46:16;;;;;;;;;;;;;;;10.90;69.68;91620.72;5016286;28;19917;-76
2022/12/11 02:48:42;;;;;;;;;;;;;;;10.90;68.57;91643.88;5015969;28;19948;-78
2022/12/11 02:51:09;;;;;;;;;;;;;;;10.98;63.95;91632.94;5016644;28;19924;-75
2022/12/11 02:53:36;;;;;;;;;;;;;;;11.05;62.50;91616.28;5029366;28;19917;-75
2022/12/11 02:56:07;;;;;;;;;;;;;;;11.03;62.20;91635.25;5014225;28;20377;-77
2022/12/11 02:58:34;;;;;;;;;;;;;;;11.06;62.03;91634.50;5015848;28;19924;-76
2022/12/11 03:00:59;;;;;;;;;;;;;;;11.02;64.20;91619.66;5017075;28;19917;-75
2022/12/11 03:03:27;;;;;;;;;;;;;;;11.07;64.22;91603.38;5016127;28;19921;-76
2022/12/11 03:05:52;;;;;;;;;;;;;;;11.09;62.49;91585.91;5012997;28;20116;-75
2022/12/11 03:08:17;;;;;;;;;;;;;;;11.15;64.22;91573.78;5020516;28;19977;-76
2022/12/11 03:10:43;;;;;;;;;;;;;;;11.22;64.33;91577.63;5013446;28;19917;-75
2022/12/11 03:13:09;;;;;;;;;;;;;;;11.24;63.42;91596.66;5015842;28;19921;-75
2022/12/11 03:15:37;;;;;;;;;;;;;;;11.28;64.36;91584.13;5015862;28;19999;-76
2022/12/11 03:18:08;;;;;;;;;;;;;;;11.30;62.42;91600.47;5014822;28;19917;-77
2022/12/11 03:20:33;;;;;;;;;;;;;;;11.38;63.08;91599.41;5017059;28;19943;-76
2022/12/11 03:23:02;;;;;;;;;;;;;;;11.34;62.39;91603.94;5030139;28;20751;-76
2022/12/11 03:25:53;;;;;;;;;;;;;;;11.44;61.65;91616.56;5018510;28;20511;-75
2022/12/11 03:28:23;;;;;;;;;;;;;;;11.39;62.62;91599.03;5015096;28;19920;-75
2022/12/11 03:30:50;;;;;;;;;;;;;;;11.43;61.94;91621.13;5016421;28;19920;-78
2022/12/11 03:33:28;;;;;;;;;;;;;;;11.47;62.56;91621.13;5018361;28;19917;-76
2022/12/11 03:35:59;;;;;;;;;;;;;;;11.43;62.40;91633.66;5029701;28;19917;-76
2022/12/11 03:38:35;;;;;;;;;;;;;;;11.47;62.22;91653.06;5015601;28;19917;-77
2022/12/11 03:41:03;;;;;;;;;;;;;;;11.48;62.65;91622.66;5015650;28;19972;-77
2022/12/11 03:43:30;;;;;;;;;;;;;;;11.51;62.46;91632.59;5017977;28;19922;-76
2022/12/11 03:45:57;;;;;;;;;;;;;;;11.52;62.65;91636.78;5012172;28;20438;-75
2022/12/11 03:48:26;;;;;;;;;;;;;;;11.53;61.54;91651.63;5015099;28;20340;-76
2022/12/11 03:50:51;;;;;;;;;;;;;;;11.60;61.02;91664.97;5014391;28;20539;-76
2022/12/11 03:53:17;;;;;;;;;;;;;;;11.52;60.09;91698.00;5015605;28;19929;-77
2022/12/11 03:55:43;;;;;;;;;;;;;;;11.52;59.97;91655.41;5017765;28;19921;-77
2022/12/11 03:58:09;;;;;;;;;;;;;;;11.60;59.40;91699.56;5017010;28;19921;-79
2022/12/11 04:00:34;;;;;;;;;;;;;;;11.59;59.40;91708.69;5015639;28;19917;-74
2022/12/11 04:03:12;;;;;;;;;;;;;;;11.68;59.08;91732.34;5016364;28;19929;-77
2022/12/11 04:05:37;;;;;;;;;;;;;;;11.77;60.30;91736.22;5014366;28;19967;-76
2022/12/11 04:08:03;;;;;;;;;;;;;;;11.80;59.91;91713.41;5015705;28;19917;-78
2022/12/11 04:10:28;;;;;;;;;;;;;;;11.73;60.43;91708.06;5020497;28;20392;-77
2022/12/11 04:12:53;;;;;;;;;;;;;;;11.91;59.90;91735.56;5014482;28;20455;-79
2022/12/11 04:15:19;;;;;;;;;;;;;;;11.98;57.71;91733.69;5015638;28;19917;-75
2022/12/11 04:26:11;;;;;;;;;;;;;;;11.84;56.93;91783.44;5017184;28;20055;-76
2022/12/11 04:28:36;;;;;;;;;;;;;;;11.98;55.76;91815.50;5016200;28;19921;-75
2022/12/11 04:31:02;;;;;;;;;;;;;;;12.13;55.97;91806.47;5013005;28;19944;-77
2022/12/11 04:33:27;;;;;;;;;;;;;;;12.14;56.55;91794.69;5015190;28;19944;-76
2022/12/11 04:35:52;;;;;;;;;;;;;;;12.13;56.54;91806.47;5012447;28;19995;-76
2022/12/11 04:38:18;;;;;;;;;;;;;;;12.16;54.30;91795.09;5016100;28;20059;-77
2022/12/11 04:40:43;;;;;;;;;;;;;;;12.08;54.47;91798.81;5010945;28;19940;-75
2022/12/11 04:43:08;;;;;;;;;;;;;;;11.98;53.84;91805.59;5021719;28;20271;-77
2022/12/11 04:45:34;;;;;;;;;;;;;;;11.96;54.73;91826.53;5015283;28;19921;-75
2022/12/11 04:47:59;;;;;;;;;;;;;;;11.93;54.56;91821.94;5011822;28;20004;-75
2022/12/11 04:50:24;;;;;;;;;;;;;;;11.97;53.99;91809.44;5011119;28;19920;-76
2022/12/11 04:52:53;;;;;;;;;;;;;;;11.98;54.04;91813.59;5014306;28;20589;-76
2022/12/11 04:55:18;;;;;;;;;;;;;;;11.94;54.02;91820.81;5013318;28;19924;-75
2022/12/11 04:57:43;;;;;;;;;;;;;;;11.99;54.10;91841.78;5012691;28;19914;-76
2022/12/11 05:00:09;;;;;;;;;;;;;;;11.99;53.70;91849.75;5014395;28;19959;-77
2022/12/11 05:02:36;;;;;;;;;;;;;;;11.90;54.18;91798.72;5010864;28;19932;-76
2022/12/11 05:05:02;;;;;;;;;;;;;;;11.89;54.01;91799.84;5020998;28;19917;-76
2022/12/11 05:07:28;;;;;;;;;;;;;;;11.92;54.32;91801.78;5015239;28;19954;-76
2022/12/11 05:09:53;;;;;;;;;;;;;;;12.00;54.01;91792.69;5014942;28;20039;-76
2022/12/11 05:12:18;;;;;;;;;;;;;;;12.14;54.00;91808.00;5014068;28;19951;-77
2022/12/11 05:14:43;;;;;;;;;;;;;;;12.23;53.15;91789.03;5013479;28;19960;-76
2022/12/11 05:17:09;;;;;;;;;;;;;;;12.24;53.44;91811.88;5015535;28;20032;-76
2022/12/11 05:19:34;;;;;;;;;;;;;;;12.22;53.29;91809.59;5027336;28;19928;-76
2022/12/11 05:21:59;;;;;;;;;;;;;;;12.13;52.64;91801.16;5013576;28;20004;-77
2022/12/11 05:24:24;;;;;;;;;;;;;;;11.80;53.25;91772.75;5014253;28;19909;-75
2022/12/11 05:26:50;;;;;;;;;;;;;;;11.95;53.08;91822.34;5015682;28;20692;-76
2022/12/11 05:29:15;;;;;;;;;;;;;;;11.99;52.83;91804.47;5014625;28;19927;-76
2022/12/11 05:31:40;;;;;;;;;;;;;;;11.96;53.46;91823.88;5016589;28;20563;-75
2022/12/11 05:34:05;;;;;;;;;;;;;;;11.88;53.77;91795.63;5015955;28;19927;-77
2022/12/11 05:36:31;;;;;;;;;;;;;;;11.86;54.10;91819.22;5018022;28;19921;-75
2022/12/11 05:38:58;;;;;;;;;;;;;;;11.86;54.54;91797.16;5024113;28;20003;-77
2022/12/11 05:41:24;;;;;;;;;;;;;;;11.88;54.11;91808.94;5017347;28;19996;-77
2022/12/11 05:43:50;;;;;;;;;;;;;;;11.97;53.90;91777.47;5017293;28;19916;-76
2022/12/11 05:46:16;;;;;;;;;;;;;;;11.99;53.85;91825.78;5014811;28;20036;-76
2022/12/11 05:48:42;;;;;;;;;;;;;;;12.10;53.88;91787.81;5012218;28;20478;-77
2022/12/11 05:51:07;;;;;;;;;;;;;;;12.04;54.38;91803.38;5012744;28;19909;-76
2022/12/11 05:53:34;;;;;;;;;;;;;;;12.14;53.77;91775.28;5011531;28;19925;-79
2022/12/11 05:56:00;;;;;;;;;;;;;;;12.02;54.18;91795.78;5028509;28;20295;-77
2022/12/11 05:58:25;;;;;;;;;;;;;;;12.07;53.48;91756.59;5013788;28;19917;-77
2022/12/11 06:00:50;;;;;;;;;;;;;;;11.95;53.56;91747.75;5012087;28;19917;-77
2022/12/11 06:03:16;;;;;;;;;;;;;;;11.99;53.44;91775.19;5014521;28;19921;-78
2022/12/11 06:05:41;;;;;;;;;;;;;;;12.06;53.24;91763.03;5013199;28;19959;-77
2022/12/11 06:08:07;;;;;;;;;;;;;;;12.08;53.11;91758.13;5013262;28;19967;-77
2022/12/11 06:10:33;;;;;;;;;;;;;;;12.10;53.37;91732.63;5012320;28;19967;-78
2022/12/11 06:12:58;;;;;;;;;;;;;;;11.94;53.45;91730.25;5014398;28;19961;-78
2022/12/11 06:15:23;;;;;;;;;;;;;;;11.99;53.42;91769.84;5015682;28;19917;-77
2022/12/11 06:17:49;;;;;;;;;;;;;;;12.14;52.56;91777.94;5013468;28;19933;-77
2022/12/11 06:20:14;;;;;;;;;;;;;;;12.22;51.74;91790.19;5012140;28;19953;-77
2022/12/11 06:22:39;;;;;;;;;;;;;;;12.09;52.51;91810.25;5014312;28;19928;-77
2022/12/11 06:25:05;;;;;;;;;;;;;;;12.12;52.83;91814.84;5013596;28;19921;-77
2022/12/11 06:27:30;;;;;;;;;;;;;;;12.13;53.11;91862.44;5013863;28;19928;-78
2022/12/11 06:29:56;;;;;;;;;;;;;;;12.18;52.89;91818.69;5015172;28;19917;-78
2022/12/11 06:32:21;;;;;;;;;;;;;;;12.14;52.30;91839.22;5012999;28;19921;-78
2022/12/11 06:34:46;;;;;;;;;;;;;;;12.21;51.45;91825.97;5013139;28;19917;-78
2022/12/11 06:37:11;;;;;;;;;;;;;;;12.22;51.75;91814.16;5014272;28;20408;-78
2022/12/11 06:39:37;;;;;;;;;;;;;;;12.30;52.39;91826.41;5013469;28;19912;-77
2022/12/11 06:42:02;;;;;;;;;;;;;;;12.37;52.08;91808.53;5013780;28;20486;-76
2022/12/11 06:44:27;;;;;;;;;;;;;;;12.49;52.56;91834.13;5013130;28;19917;-77
2022/12/11 06:46:53;;;;;;;;;;;;;;;12.54;52.52;91844.44;5008765;28;19921;-77
2022/12/11 06:49:18;;;;;;;;;;;;;;;12.72;51.18;91842.66;5003052;28;20008;-78
2022/12/11 06:51:43;;;;;;;;;;;;;;;12.79;52.09;91836.63;4990795;28;19918;-77
2022/12/11 06:54:08;;;;;;;;;;;;;;;12.79;50.96;91820.59;4993113;28;19948;-77
2022/12/11 06:56:34;;;;;;;;;;;;;;;12.74;51.94;91824.41;4993173;28;19953;-77
2022/12/11 06:58:59;;;;;;;;;;;;;;;12.63;51.68;91818.25;4993809;28;20516;-77
2022/12/11 07:01:26;;;;;;;;;;;;;;;12.64;52.41;91841.09;5004952;28;19923;-77
2022/12/11 07:03:52;;;;;;;;;;;;;;;12.59;52.28;91785.47;5005957;28;20262;-78
2022/12/11 07:06:17;;;;;;;;;;;;;;;12.47;52.30;91807.06;4989594;28;19913;-78
2022/12/11 07:08:43;;;;;;;;;;;;;;;12.39;52.86;91840.94;4992857;28;20534;-77
2022/12/11 07:11:10;;;;;;;;;;;;;;;12.46;52.23;91840.22;4990272;28;19921;-76
2022/12/11 07:13:35;;;;;;;;;;;;;;;12.37;53.18;91813.13;4991115;28;19928;-77
2022/12/11 07:16:03;;;;;;;;;;;;;;;12.36;53.33;91835.56;4994609;28;19922;-77
2022/12/11 07:18:29;;;;;;;;;;;;;;;12.42;53.45;91828.75;4992296;28;20362;-77
2022/12/11 07:20:56;;;;;;;;;;;;;;;12.46;53.63;91832.22;4993298;28;19956;-77
2022/12/11 07:23:21;;;;;;;;;;;;;;;12.48;52.88;91835.25;5000568;28;20332;-76
2022/12/11 07:25:46;;;;;;;;;;;;;;;12.51;52.95;91852.44;4991038;28;19924;-78
2022/12/11 07:28:12;;;;;;;;;;;;;;;12.56;52.75;91826.19;4992549;28;19932;-77
2022/12/11 07:30:37;;;;;;;;;;;;;;;12.32;52.88;91786.81;4991274;28;20594;-77
2022/12/11 07:33:02;;;;;;;;;;;;;;;12.40;53.53;91847.03;4991474;28;19921;-77
2022/12/11 07:35:28;;;;;;;;;;;;;;;12.60;52.96;91883.00;4992140;28;20048;-78
2022/12/11 07:37:53;;;;;;;;;;;;;;;12.45;52.90;91844.00;4993412;28;19929;-76
2022/12/11 07:40:18;;;;;;;;;;;;;;;12.47;53.18;91879.03;4992636;28;20384;-77
2022/12/11 07:42:43;;;;;;;;;;;;;;;12.58;52.83;91909.25;4990917;28;20004;-76
2022/12/11 07:45:09;;;;;;;;;;;;;;;12.61;52.74;91844.53;4993299;28;19921;-77
2022/12/11 07:47:34;;;;;;;;;;;;;;;12.51;52.37;91831.88;5005348;28;19925;-77
2022/12/11 07:49:59;;;;;;;;;;;;;;;12.53;53.24;91826.91;4987685;28;19925;-77
2022/12/11 07:52:25;;;;;;;;;;;;;;;12.60;53.86;91883.00;4991623;28;19922;-77
2022/12/11 07:54:50;;;;;;;;;;;;;;;12.77;52.93;91868.22;5000089;28;19921;-77
2022/12/11 07:57:15;;;;;;;;;;;;;;;12.77;52.11;91871.66;4989270;28;19965;-77
2022/12/11 07:59:41;;;;;;;;;;;;;;;12.72;52.15;91906.66;4988409;28;19964;-78
2022/12/11 08:02:08;;;;;;;;;;;;;;;12.72;52.72;91852.56;4988851;28;19926;-77
2022/12/11 08:04:33;;;;;;;;;;;;;;;12.67;52.07;91908.91;4986843;28;19921;-77
2022/12/11 08:06:59;;;;;;;;;;;;;;;12.72;52.61;91909.34;4991042;28;19926;-77
2022/12/11 08:09:25;;;;;;;;;;;;;;;12.71;53.23;91904.41;4987124;28;19910;-77
2022/12/11 08:11:50;;;;;;;;;;;;;;;12.76;52.85;91891.44;4989055;28;20796;-77
2022/12/11 08:14:16;;;;;;;;;;;;;;;12.70;52.68;91902.84;5002707;28;20811;-76
2022/12/11 08:16:42;;;;;;;;;;;;;;;12.72;52.62;91933.34;5006763;28;20725;-76
2022/12/11 08:19:08;;;;;;;;;;;;;;;12.83;52.57;91925.41;5008236;28;20428;-77
2022/12/11 08:21:34;;;;;;;;;;;;;;;12.91;52.66;91945.66;5009159;28;20008;-76
2022/12/11 08:23:59;;;;;;;;;;;;;;;13.05;51.96;91937.00;5007928;28;19925;-77
2022/12/11 08:26:25;;;;;;;;;;;;;;;13.06;52.05;91917.16;5008486;28;20004;-77
2022/12/11 08:28:51;;;;;;;;;;;;;;;13.03;52.42;91936.59;5007546;28;19921;-77
2022/12/11 08:31:17;;;;;;;;;;;;;;;13.04;53.00;91928.22;5007491;28;20403;-77
2022/12/11 08:33:43;;;;;;;;;;;;;;;13.06;52.29;91935.81;5005649;28;20048;-77
2022/12/11 08:36:09;;;;;;;;;;;;;;;13.16;52.32;91919.09;5006106;28;19917;-76
2022/12/11 08:38:35;;;;;;;;;;;;;;;13.24;52.96;91916.13;5003971;28;19998;-77
2022/12/11 08:41:14;;;;;;;;;;;;;;;13.27;53.73;91920.69;5006115;28;20375;-76
2022/12/11 08:43:40;;;;;;;;;;;;;;;13.15;53.97;91938.94;5004575;28;19921;-77
2022/12/11 08:46:05;;;;;;;;;;;;;;;13.17;54.33;91936.66;5004360;28;19928;-77
2022/12/11 08:48:31;;;;;;;;;;;;;;;13.13;54.63;91925.97;5006999;28;20419;-77
2022/12/11 08:51:00;;;;;;;;;;;;;;;13.07;55.20;91903.44;5011204;28;19925;-78
2022/12/11 08:53:27;;;;;;;;;;;;;;;13.09;54.57;91921.75;5008916;28;20506;-76
2022/12/11 08:55:52;;;;;;;;;;;;;;;13.21;55.66;91932.88;5009607;28;20372;-77
2022/12/11 08:58:17;;;;;;;;;;;;;;;13.21;55.73;91932.09;5006627;28;19999;-77
2022/12/11 09:00:42;;;;;;;;;;;;;;;13.37;56.28;91929.88;5009713;28;19916;-77
2022/12/11 09:03:08;;;;;;;;;;;;;;;13.45;55.87;91934.09;5009172;28;20504;-78
2022/12/11 09:05:33;;;;;;;;;;;;;;;13.62;56.52;91930.00;5009475;28;19917;-77
2022/12/11 09:07:58;;;;;;;;;;;;;;;13.69;58.03;91925.44;5003710;28;20814;-77
2022/12/11 09:10:23;;;;;;;;;;;;;;;13.80;58.73;91928.16;5007697;28;19916;-77
2022/12/11 09:12:49;;;;;;;;;;;;;;;13.79;59.87;91923.22;5008580;28;20055;-77
2022/12/11 09:15:14;;;;;;;;;;;;;;;13.79;59.32;91931.22;5006962;28;20348;-78
2022/12/11 09:17:40;;;;;;;;;;;;;;;13.75;59.16;91923.94;5007010;28;19925;-77
2022/12/11 09:20:05;;;;;;;;;;;;;;;13.69;58.63;91920.09;5007028;28;19971;-78
2022/12/11 09:22:31;;;;;;;;;;;;;;;13.63;56.52;91937.66;5005462;28;19925;-77
2022/12/11 09:24:57;;;;;;;;;;;;;;;13.71;53.78;91893.78;5004893;28;19996;-77
2022/12/11 09:27:22;;;;;;;;;;;;;;;13.77;54.62;91928.16;5010220;28;20407;-77
2022/12/11 09:29:48;;;;;;;;;;;;;;;13.57;52.03;91917.00;5003734;28;19963;-76
2022/12/11 09:32:13;;;;;;;;;;;;;;;13.35;51.57;91881.44;5003985;28;19971;-76
2022/12/11 09:34:38;;;;;;;;;;;;;;;13.49;52.88;91894.84;5006116;28;20408;-76
2022/12/11 09:37:04;;;;;;;;;;;;;;;13.54;53.18;91909.75;5004915;28;20004;-77
2022/12/11 09:39:29;;;;;;;;;;;;;;;13.63;51.59;91889.59;5019405;28;20024;-76
2022/12/11 09:42:06;;;;;;;;;;;;;;;13.70;51.65;91900.28;5005562;28;19921;-78
2022/12/11 09:44:53;;;;;;;;;;;;;;;13.70;51.10;91876.22;5005750;28;19921;-76
2022/12/11 09:47:18;;;;;;;;;;;;;;;13.78;50.43;91894.97;5017558;28;19925;-77
2022/12/11 09:49:46;;;;;;;;;;;;;;;13.75;50.74;91875.09;5006466;28;19963;-78
2022/12/11 09:52:16;;;;;;;;;;;;;;;13.82;50.98;91875.13;5005728;28;19929;-79
2022/12/11 09:54:49;;;;;;;;;;;;;;;13.90;49.97;91881.22;5006163;28;20017;-78
2022/12/11 09:57:17;;;;;;;;;;;;;;;13.94;50.65;91892.69;5010043;28;19905;-78
2022/12/11 09:59:45;;;;;;;;;;;;;;;13.65;49.78;91881.94;5005994;28;20590;-78
2022/12/11 10:02:14;;;;;;;;;;;;;;;13.53;51.29;91884.19;5006358;28;20188;-77
2022/12/11 10:04:39;;;;;;;;;;;;;;;13.68;50.62;91888.44;5004138;28;19928;-77
2022/12/11 10:07:04;;;;;;;;;;;;;;;13.79;52.49;91873.19;5006941;28;19917;-77
2022/12/11 10:09:50;;;;;;;;;;;;;;;13.93;53.07;91886.59;5018217;28;19924;-78
2022/12/11 10:12:22;;;;;;;;;;;;;;;14.11;52.49;91892.72;5011396;28;20372;-78
2022/12/11 10:14:50;;;;;;;;;;;;;;;14.25;53.45;91880.50;5006599;28;20366;-79
2022/12/11 10:17:27;;;;;;;;;;;;;;;14.10;52.93;91877.81;4994472;28;20359;-79
2022/12/11 10:19:53;;;;;;;;;;;;;;;14.04;53.44;91871.31;4987855;28;19921;-78
2022/12/11 10:22:21;;;;;;;;;;;;;;;13.99;53.58;91885.06;4986897;28;19917;-78
2022/12/11 10:24:55;;;;;;;;;;;;;;;14.05;52.49;91874.75;4986706;28;19914;-78
2022/12/11 10:27:21;;;;;;;;;;;;;;;14.10;52.90;91882.41;4998794;28;20289;-77
2022/12/11 10:29:50;;;;;;;;;;;;;;;13.91;55.18;91894.22;4985775;28;20020;-78
2022/12/11 10:32:23;;;;;;;;;;;;;;;13.97;55.31;91902.63;4985956;28;19933;-78
2022/12/11 10:34:55;;;;;;;;;;;;;;;13.69;57.98;91922.03;4984740;28;19922;-78
2022/12/11 10:37:20;;;;;;;;;;;;;;;13.59;54.83;91880.03;4987547;28;19921;-78
2022/12/11 10:39:45;;;;;;;;;;;;;;;13.53;55.43;91866.25;5000990;28;20354;-79
2022/12/11 10:42:28;;;;;;;;;;;;;;;13.24;55.79;91872.66;4986629;28;20064;-78
2022/12/11 10:44:55;;;;;;;;;;;;;;;13.52;59.50;91867.38;4983712;28;19952;-77
2022/12/11 10:47:21;;;;;;;;;;;;;;;13.73;53.55;91867.47;4984968;28;19928;-77
2022/12/11 10:49:54;;;;;;;;;;;;;;;13.93;54.40;91870.56;4986897;28;20388;-78
2022/12/11 10:52:41;;;;;;;;;;;;;;;14.03;53.11;91861.03;4987178;28;19933;-77
2022/12/11 10:55:18;;;;;;;;;;;;;;;13.98;54.66;91870.19;4990548;28;20278;-78
2022/12/11 10:57:44;;;;;;;;;;;;;;;13.99;54.52;91884.28;4989909;28;20409;-77
2022/12/11 11:00:48;;;;;;;;;;;;;;;13.99;54.27;91850.31;4990421;28;20047;-76
2022/12/11 11:03:24;;;;;;;;;;;;;;;13.70;51.24;91857.53;4972812;28;19926;-77
2022/12/11 11:06:00;;;;;;;;;;;;;;;13.41;52.51;91861.25;4959561;28;19918;-76
2022/12/11 11:08:26;;;;;;;;;;;;;;;13.30;53.31;91849.75;4992790;28;19929;-77
2022/12/11 11:10:56;;;;;;;;;;;;;;;13.48;54.00;91863.19;5008853;28;20375;-78
2022/12/11 11:13:22;;;;;;;;;;;;;;;13.69;54.83;91855.25;5010909;28;20389;-77
2022/12/11 11:15:48;;;;;;;;;;;;;;;13.83;53.52;91849.94;5010338;28;19923;-77
2022/12/11 11:18:22;;;;;;;;;;;;;;;14.01;53.93;91844.59;5008758;28;19912;-77
2022/12/11 11:20:48;;;;;;;;;;;;;;;14.07;52.00;91838.50;5007945;28;19928;-76
2022/12/11 11:23:14;;;;;;;;;;;;;;;14.04;51.60;91862.53;5010023;28;19921;-77
2022/12/11 11:25:47;;;;;;;;;;;;;;;14.17;53.75;91863.72;5010463;28;20451;-77
2022/12/11 11:28:19;;;;;;;;;;;;;;;14.16;52.24;91852.25;5007932;28;20369;-76
2022/12/11 11:30:53;;;;;;;;;;;;;;;13.92;51.26;91861.00;5009838;28;19947;-78
2022/12/11 11:33:19;;;;;;;;;;;;;;;13.96;53.13;91847.66;5015876;28;19913;-78
2022/12/11 11:36:11;;;;;;;;;;;;;;;14.12;53.74;91842.69;5011527;28;19937;-76
2022/12/11 11:38:39;;;;;;;;;;;;;;;14.37;53.60;91851.47;5011099;28;19920;-78
2022/12/11 11:41:11;;;;;;;;;;;;;;;14.48;53.38;91836.16;5007125;28;19921;-77
2022/12/11 11:43:36;;;;;;;;;;;;;;;14.47;53.09;91856.03;5008909;28;19964;-77
2022/12/11 11:46:13;;;;;;;;;;;;;;;14.53;53.44;91849.19;5020756;28;19960;-77
2022/12/11 11:48:49;;;;;;;;;;;;;;;14.41;51.90;91830.84;5017386;28;19917;-76
2022/12/11 11:51:18;;;;;;;;;;;;;;;14.21;50.87;91820.94;5021422;28;21084;-76
2022/12/11 11:53:46;;;;;;;;;;;;;;;14.09;52.27;91817.47;5009086;28;19922;-76
2022/12/11 11:56:18;;;;;;;;;;;;;;;13.92;52.20;91830.84;5033646;28;20039;-76
2022/12/11 11:58:55;;;;;;;;;;;;;;;14.02;52.15;91835.44;5024577;28;19921;-76
2022/12/11 12:01:20;;;;;;;;;;;;;;;13.66;54.48;91835.41;4999913;28;19961;-76
2022/12/11 12:03:47;;;;;;;;;;;;;;;13.73;52.83;91838.09;4994155;28;19972;-77
2022/12/11 12:06:18;;;;;;;;;;;;;;;13.97;53.83;91833.91;4989482;28;20363;-79
2022/12/11 12:09:02;;;;;;;;;;;;;;;13.86;54.70;91824.34;4989472;28;20478;-78
2022/12/11 12:11:33;;;;;;;;;;;;;;;13.62;55.53;91828.53;4989419;28;20297;-78
2022/12/11 12:13:58;;;;;;;;;;;;;;;13.67;56.84;91863.66;4990474;28;19991;-77
2022/12/11 12:16:27;;;;;;;;;;;;;;;13.46;61.39;91868.91;4996665;28;20336;-77
2022/12/11 12:19:01;;;;;;;;;;;;;;;13.57;62.88;91843.00;5009761;28;20338;-77
2022/12/11 12:21:33;;;;;;;;;;;;;;;13.60;63.27;91842.25;5012277;28;19980;-79
2022/12/11 12:24:09;;;;;;;;;;;;;;;13.77;63.38;91823.97;5002118;28;20512;-77
2022/12/11 12:26:36;;;;;;;;;;;;;;;13.62;57.74;91825.84;5016497;28;19928;-78
2022/12/11 12:29:07;;;;;;;;;;;;;;;13.66;57.07;91822.03;5010834;28;19921;-77
2022/12/11 12:31:45;;;;;;;;;;;;;;;13.77;56.46;91826.63;5006721;28;19924;-78
2022/12/11 12:34:19;;;;;;;;;;;;;;;13.83;58.30;91838.50;5009236;28;19929;-77
2022/12/11 12:36:47;;;;;;;;;;;;;;;13.73;59.51;91843.44;5015186;28;20399;-76
2022/12/11 12:39:42;;;;;;;;;;;;;;;13.73;59.84;91856.03;5012540;28;19917;-77
2022/12/11 12:42:18;;;;;;;;;;;;;;;13.16;57.95;91865.72;5011094;28;19943;-77
2022/12/11 12:44:58;;;;;;;;;;;;;;;12.30;60.68;91885.78;5014136;28;20079;-76
2022/12/11 12:47:25;;;;;;;;;;;;;;;12.33;59.95;91884.28;5012740;28;20134;-77
2022/12/11 12:49:52;;;;;;;;;;;;;;;11.94;59.93;91898.06;5014135;28;19917;-77
2022/12/11 12:52:17;;;;;;;;;;;;;;;11.86;60.24;91923.09;5012210;28;19921;-76
2022/12/11 12:55:12;;;;;;;;;;;;;;;11.81;59.20;91915.44;5013419;28;19928;-77
2022/12/11 12:57:30;;;;;;;;;;;;;;;11.48;58.99;91931.41;5013809;28;19909;-77
2022/12/11 12:59:56;;;;;;;;;;;;;;;11.33;57.96;91940.34;5009593;28;20012;-77
2022/12/11 13:02:21;;;;;;;;;;;;;;;10.77;58.36;91938.47;5010564;28;19921;-76